sensor_id;sensor_type;location;lat;lon;timestamp;temperature;humidity
5429;DHT22;2737;52.386;9.980;2024-01-15T00:00:01;1.40;99.90
5429;DHT22;2737;52.386;9.980;2024-01-15T00:02:29;1.30;99.90
5429;DHT22;2737;52.386;9.980;2024-01-15T00:04:56;1.30;99.90
5429;DHT22;2737;52.386;9.980;2024-01-15T00:07:23;1.30;99.90
5429;DHT22;2737;52.386;9.980;2024-01-15T00:09:50;1.30;99.90
5429;DHT22;2737;52.386;9.980;2024-01-15T00:12:17;1.30;99.90
5429;DHT22;2737;52.386;9.980;2024-01-15T00:14:44;1.20;99.90
5429;DHT22;2737;52.386;9.980;2024-01-15T00:17:12;1.20;99.90
5429;DHT22;2737;52.386;9.980;2024-01-15T00:19:39;1.40;99.90
5429;DHT22;2737;52.386;9.980;2024-01-15T00:22:06;1.20;99.90
5429;DHT22;2737;52.386;9.980;2024-01-15T00:24:33;1.20;99.90
5429;DHT22;2737;52.386;9.980;2024-01-15T00:27:00;1.20;99.90
5429;DHT22;2737;52.386;9.980;2024-01-15T00:29:27;1.30;99.90
5429;DHT22;2737;52.386;9.980;2024-01-15T00:31:54;1.30;99.90
5429;DHT22;2737;52.386;9.980;2024-01-15T00:34:23;1.30;99.90
5429;DHT22;2737;52.386;9.980;2024-01-15T00:36:50;1.30;99.90
5429;DHT22;2737;52.386;9.980;2024-01-15T00:39:17;1.30;99.90
5429;DHT22;2737;52.386;9.980;2024-01-15T00:41:44;1.20;99.90
5429;DHT22;2737;52.386;9.980;2024-01-15T00:44:11;1.20;99.90
5429;DHT22;2737;52.386;9.980;2024-01-15T00:46:43;1.20;99.90
5429;DHT22;2737;52.386;9.980;2024-01-15T00:49:10;1.20;99.90
5429;DHT22;2737;52.386;9.980;2024-01-15T00:51:40;1.10;99.90
5429;DHT22;2737;52.386;9.980;2024-01-15T00:54:07;1.10;99.90
5429;DHT22;2737;52.386;9.980;2024-01-15T00:56:34;1.10;99.90
5429;DHT22;2737;52.386;9.980;2024-01-15T00:59:01;1.10;99.90
5429;DHT22;2737;52.386;9.980;2024-01-15T01:01:28;1.00;99.90
5429;DHT22;2737;52.386;9.980;2024-01-15T01:03:55;1.00;99.90
5429;DHT22;2737;52.386;9.980;2024-01-15T01:06:22;1.00;99.90
5429;DHT22;2737;52.386;9.980;2024-01-15T01:08:50;1.00;99.90
5429;DHT22;2737;52.386;9.980;2024-01-15T01:11:17;1.10;99.90
5429;DHT22;2737;52.386;9.980;2024-01-15T01:13:44;1.10;99.90
5429;DHT22;2737;52.386;9.980;2024-01-15T01:16:11;1.10;99.90
5429;DHT22;2737;52.386;9.980;2024-01-15T01:18:38;1.10;99.90
5429;DHT22;2737;52.386;9.980;2024-01-15T01:21:06;1.10;99.90
5429;DHT22;2737;52.386;9.980;2024-01-15T01:23:33;1.10;99.90
5429;DHT22;2737;52.386;9.980;2024-01-15T01:26:01;1.10;99.90
5429;DHT22;2737;52.386;9.980;2024-01-15T01:28:28;1.10;99.90
5429;DHT22;2737;52.386;9.980;2024-01-15T01:30:55;1.10;99.90
5429;DHT22;2737;52.386;9.980;2024-01-15T01:33:22;1.20;99.90
5429;DHT22;2737;52.386;9.980;2024-01-15T01:35:49;1.20;99.90
5429;DHT22;2737;52.386;9.980;2024-01-15T01:38:16;1.20;99.90
5429;DHT22;2737;52.386;9.980;2024-01-15T01:40:43;1.10;99.90
5429;DHT22;2737;52.386;9.980;2024-01-15T01:43:11;1.10;99.90
5429;DHT22;2737;52.386;9.980;2024-01-15T01:45:38;1.10;99.90
5429;DHT22;2737;52.386;9.980;2024-01-15T01:48:06;1.10;99.90
5429;DHT22;2737;52.386;9.980;2024-01-15T01:50:33;1.10;99.90
5429;DHT22;2737;52.386;9.980;2024-01-15T01:53:01;1.10;99.90
5429;DHT22;2737;52.386;9.980;2024-01-15T01:55:30;1.10;99.90
5429;DHT22;2737;52.386;9.980;2024-01-15T01:57:59;1.10;99.90
5429;DHT22;2737;52.386;9.980;2024-01-15T02:00:27;1.10;99.90
5429;DHT22;2737;52.386;9.980;2024-01-15T02:02:54;1.20;99.90
5429;DHT22;2737;52.386;9.980;2024-01-15T02:05:22;1.20;99.90
5429;DHT22;2737;52.386;9.980;2024-01-15T02:07:49;1.30;99.90
5429;DHT22;2737;52.386;9.980;2024-01-15T02:10:16;1.30;99.90
5429;DHT22;2737;52.386;9.980;2024-01-15T02:12:44;1.40;99.90
5429;DHT22;2737;52.386;9.980;2024-01-15T02:15:11;1.40;99.90
5429;DHT22;2737;52.386;9.980;2024-01-15T02:17:57;1.40;99.90
5429;DHT22;2737;52.386;9.980;2024-01-15T02:20:25;1.40;99.90
5429;DHT22;2737;52.386;9.980;2024-01-15T02:22:52;1.50;99.90
5429;DHT22;2737;52.386;9.980;2024-01-15T02:25:21;1.50;99.90
5429;DHT22;2737;52.386;9.980;2024-01-15T02:27:48;1.60;99.90
5429;DHT22;2737;52.386;9.980;2024-01-15T02:30:15;1.60;99.90
5429;DHT22;2737;52.386;9.980;2024-01-15T02:32:43;1.70;99.90
5429;DHT22;2737;52.386;9.980;2024-01-15T02:35:11;1.70;99.90
5429;DHT22;2737;52.386;9.980;2024-01-15T02:37:38;1.70;99.90
5429;DHT22;2737;52.386;9.980;2024-01-15T02:40:06;1.70;99.90
5429;DHT22;2737;52.386;9.980;2024-01-15T02:42:34;1.70;99.90
5429;DHT22;2737;52.386;9.980;2024-01-15T02:45:02;1.70;99.90
5429;DHT22;2737;52.386;9.980;2024-01-15T02:47:29;1.70;99.90
5429;DHT22;2737;52.386;9.980;2024-01-15T02:49:56;1.70;99.90
5429;DHT22;2737;52.386;9.980;2024-01-15T02:52:22;1.70;99.90
5429;DHT22;2737;52.386;9.980;2024-01-15T02:54:50;1.70;99.90
5429;DHT22;2737;52.386;9.980;2024-01-15T02:57:16;1.70;99.90
5429;DHT22;2737;52.386;9.980;2024-01-15T02:59:45;1.70;99.90
5429;DHT22;2737;52.386;9.980;2024-01-15T03:02:12;1.70;99.90
5429;DHT22;2737;52.386;9.980;2024-01-15T03:04:43;1.70;99.90
5429;DHT22;2737;52.386;9.980;2024-01-15T03:07:10;1.70;99.90
5429;DHT22;2737;52.386;9.980;2024-01-15T03:09:37;1.70;99.90
5429;DHT22;2737;52.386;9.980;2024-01-15T03:12:05;1.70;99.90
5429;DHT22;2737;52.386;9.980;2024-01-15T03:14:32;1.70;99.90
5429;DHT22;2737;52.386;9.980;2024-01-15T03:17:00;1.70;99.90
5429;DHT22;2737;52.386;9.980;2024-01-15T03:19:27;1.70;99.90
5429;DHT22;2737;52.386;9.980;2024-01-15T03:21:54;1.70;99.90
5429;DHT22;2737;52.386;9.980;2024-01-15T03:24:21;1.70;99.90
5429;DHT22;2737;52.386;9.980;2024-01-15T03:26:48;1.70;99.90
5429;DHT22;2737;52.386;9.980;2024-01-15T03:29:15;1.70;99.90
5429;DHT22;2737;52.386;9.980;2024-01-15T03:31:42;1.70;99.90
5429;DHT22;2737;52.386;9.980;2024-01-15T03:34:11;1.70;99.90
5429;DHT22;2737;52.386;9.980;2024-01-15T03:36:37;1.70;99.90
5429;DHT22;2737;52.386;9.980;2024-01-15T03:39:04;1.70;99.90
5429;DHT22;2737;52.386;9.980;2024-01-15T03:41:31;1.70;99.90
5429;DHT22;2737;52.386;9.980;2024-01-15T03:43:58;1.70;99.90
5429;DHT22;2737;52.386;9.980;2024-01-15T03:46:25;1.70;99.90
5429;DHT22;2737;52.386;9.980;2024-01-15T03:48:52;1.70;99.90
5429;DHT22;2737;52.386;9.980;2024-01-15T03:51:21;1.60;99.90
5429;DHT22;2737;52.386;9.980;2024-01-15T03:53:47;1.50;99.90
5429;DHT22;2737;52.386;9.980;2024-01-15T03:56:14;1.40;99.90
5429;DHT22;2737;52.386;9.980;2024-01-15T03:58:41;1.40;99.90
5429;DHT22;2737;52.386;9.980;2024-01-15T04:01:09;1.40;99.90
5429;DHT22;2737;52.386;9.980;2024-01-15T04:03:36;1.50;99.90
5429;DHT22;2737;52.386;9.980;2024-01-15T04:06:04;1.50;99.90
5429;DHT22;2737;52.386;9.980;2024-01-15T04:08:32;1.50;99.90
5429;DHT22;2737;52.386;9.980;2024-01-15T04:10:59;1.60;99.90
5429;DHT22;2737;52.386;9.980;2024-01-15T04:13:27;1.60;99.90
5429;DHT22;2737;52.386;9.980;2024-01-15T04:15:54;1.70;99.90
5429;DHT22;2737;52.386;9.980;2024-01-15T04:18:21;1.60;99.90
5429;DHT22;2737;52.386;9.980;2024-01-15T04:20:48;1.70;99.90
5429;DHT22;2737;52.386;9.980;2024-01-15T04:23:15;1.70;99.90
5429;DHT22;2737;52.386;9.980;2024-01-15T04:25:44;1.80;99.90
5429;DHT22;2737;52.386;9.980;2024-01-15T04:28:11;1.80;99.90
5429;DHT22;2737;52.386;9.980;2024-01-15T04:30:38;1.70;99.90
5429;DHT22;2737;52.386;9.980;2024-01-15T04:33:05;1.70;99.90
5429;DHT22;2737;52.386;9.980;2024-01-15T04:35:33;1.60;99.90
5429;DHT22;2737;52.386;9.980;2024-01-15T04:38:00;1.60;99.90
5429;DHT22;2737;52.386;9.980;2024-01-15T04:40:28;1.60;99.90
5429;DHT22;2737;52.386;9.980;2024-01-15T04:42:56;1.60;99.90
5429;DHT22;2737;52.386;9.980;2024-01-15T04:45:23;1.60;99.90
5429;DHT22;2737;52.386;9.980;2024-01-15T04:47:54;1.50;99.90
5429;DHT22;2737;52.386;9.980;2024-01-15T04:50:22;1.40;99.90
5429;DHT22;2737;52.386;9.980;2024-01-15T04:52:49;1.40;99.90
5429;DHT22;2737;52.386;9.980;2024-01-15T04:55:17;1.30;99.90
5429;DHT22;2737;52.386;9.980;2024-01-15T04:57:44;1.20;99.90
5429;DHT22;2737;52.386;9.980;2024-01-15T05:00:13;1.10;99.90
5429;DHT22;2737;52.386;9.980;2024-01-15T05:02:40;1.10;99.90
5429;DHT22;2737;52.386;9.980;2024-01-15T05:05:07;1.20;99.90
5429;DHT22;2737;52.386;9.980;2024-01-15T05:07:34;1.20;99.90
5429;DHT22;2737;52.386;9.980;2024-01-15T05:10:01;1.20;99.90
5429;DHT22;2737;52.386;9.980;2024-01-15T05:12:29;1.20;99.90
5429;DHT22;2737;52.386;9.980;2024-01-15T05:14:56;1.20;99.90
5429;DHT22;2737;52.386;9.980;2024-01-15T05:17:24;1.30;99.90
5429;DHT22;2737;52.386;9.980;2024-01-15T05:19:51;1.30;99.90
5429;DHT22;2737;52.386;9.980;2024-01-15T05:22:18;1.40;99.90
5429;DHT22;2737;52.386;9.980;2024-01-15T05:24:46;1.40;99.90
5429;DHT22;2737;52.386;9.980;2024-01-15T05:27:13;1.30;99.90
5429;DHT22;2737;52.386;9.980;2024-01-15T05:29:40;1.30;99.90
5429;DHT22;2737;52.386;9.980;2024-01-15T05:32:07;1.30;99.90
5429;DHT22;2737;52.386;9.980;2024-01-15T05:34:36;1.30;99.90
5429;DHT22;2737;52.386;9.980;2024-01-15T05:37:03;1.30;99.90
5429;DHT22;2737;52.386;9.980;2024-01-15T05:39:30;1.30;99.90
5429;DHT22;2737;52.386;9.980;2024-01-15T05:41:58;1.30;99.90
5429;DHT22;2737;52.386;9.980;2024-01-15T05:44:25;1.30;99.90
5429;DHT22;2737;52.386;9.980;2024-01-15T05:46:53;1.40;99.90
5429;DHT22;2737;52.386;9.980;2024-01-15T05:49:20;1.40;99.90
5429;DHT22;2737;52.386;9.980;2024-01-15T05:51:48;1.40;99.90
5429;DHT22;2737;52.386;9.980;2024-01-15T05:54:18;1.40;99.90
5429;DHT22;2737;52.386;9.980;2024-01-15T05:56:45;1.40;99.90
5429;DHT22;2737;52.386;9.980;2024-01-15T05:59:12;1.40;99.90
5429;DHT22;2737;52.386;9.980;2024-01-15T06:01:39;1.50;99.90
5429;DHT22;2737;52.386;9.980;2024-01-15T06:04:06;1.50;99.90
5429;DHT22;2737;52.386;9.980;2024-01-15T06:06:33;1.50;99.90
5429;DHT22;2737;52.386;9.980;2024-01-15T06:09:01;1.40;99.90
5429;DHT22;2737;52.386;9.980;2024-01-15T06:11:31;1.40;99.90
5429;DHT22;2737;52.386;9.980;2024-01-15T06:13:58;1.50;99.90
5429;DHT22;2737;52.386;9.980;2024-01-15T06:16:26;1.50;99.90
5429;DHT22;2737;52.386;9.980;2024-01-15T06:18:53;1.40;99.90
5429;DHT22;2737;52.386;9.980;2024-01-15T06:21:20;1.40;99.90
5429;DHT22;2737;52.386;9.980;2024-01-15T06:23:47;1.30;99.90
5429;DHT22;2737;52.386;9.980;2024-01-15T06:26:16;1.20;99.90
5429;DHT22;2737;52.386;9.980;2024-01-15T06:28:43;1.20;99.90
5429;DHT22;2737;52.386;9.980;2024-01-15T06:31:10;1.30;99.90
5429;DHT22;2737;52.386;9.980;2024-01-15T06:33:37;1.20;99.90
5429;DHT22;2737;52.386;9.980;2024-01-15T06:36:04;1.20;99.90
5429;DHT22;2737;52.386;9.980;2024-01-15T06:38:32;1.20;99.90
5429;DHT22;2737;52.386;9.980;2024-01-15T06:40:59;1.20;99.90
5429;DHT22;2737;52.386;9.980;2024-01-15T06:43:27;1.20;99.90
5429;DHT22;2737;52.386;9.980;2024-01-15T06:45:54;1.20;99.90
5429;DHT22;2737;52.386;9.980;2024-01-15T06:48:21;1.20;99.90
5429;DHT22;2737;52.386;9.980;2024-01-15T06:50:48;1.20;99.90
5429;DHT22;2737;52.386;9.980;2024-01-15T06:53:15;1.20;99.90
5429;DHT22;2737;52.386;9.980;2024-01-15T06:55:42;1.30;99.90
5429;DHT22;2737;52.386;9.980;2024-01-15T06:58:09;1.30;99.90
5429;DHT22;2737;52.386;9.980;2024-01-15T07:00:38;1.30;99.90
5429;DHT22;2737;52.386;9.980;2024-01-15T07:03:06;1.30;99.90
5429;DHT22;2737;52.386;9.980;2024-01-15T07:05:33;1.30;99.90
5429;DHT22;2737;52.386;9.980;2024-01-15T07:08:00;1.20;99.90
5429;DHT22;2737;52.386;9.980;2024-01-15T07:10:27;1.30;99.90
5429;DHT22;2737;52.386;9.980;2024-01-15T07:12:54;1.30;99.90
5429;DHT22;2737;52.386;9.980;2024-01-15T07:15:21;1.40;99.90
5429;DHT22;2737;52.386;9.980;2024-01-15T07:17:50;1.40;99.90
5429;DHT22;2737;52.386;9.980;2024-01-15T07:20:17;1.40;99.90
5429;DHT22;2737;52.386;9.980;2024-01-15T07:22:45;1.50;99.90
5429;DHT22;2737;52.386;9.980;2024-01-15T07:25:12;1.50;99.90
5429;DHT22;2737;52.386;9.980;2024-01-15T07:27:39;1.50;99.90
5429;DHT22;2737;52.386;9.980;2024-01-15T07:30:10;1.50;99.90
5429;DHT22;2737;52.386;9.980;2024-01-15T07:32:37;1.60;99.90
5429;DHT22;2737;52.386;9.980;2024-01-15T07:35:06;1.60;99.90
5429;DHT22;2737;52.386;9.980;2024-01-15T07:37:34;1.60;99.90
5429;DHT22;2737;52.386;9.980;2024-01-15T07:40:01;1.60;99.90
5429;DHT22;2737;52.386;9.980;2024-01-15T07:42:30;1.60;99.90
5429;DHT22;2737;52.386;9.980;2024-01-15T07:44:57;1.60;99.90
5429;DHT22;2737;52.386;9.980;2024-01-15T07:47:24;1.50;99.90
5429;DHT22;2737;52.386;9.980;2024-01-15T07:49:51;1.50;99.90
5429;DHT22;2737;52.386;9.980;2024-01-15T07:52:19;1.40;99.90
5429;DHT22;2737;52.386;9.980;2024-01-15T07:54:46;1.40;99.90
5429;DHT22;2737;52.386;9.980;2024-01-15T07:57:13;1.40;99.90
5429;DHT22;2737;52.386;9.980;2024-01-15T07:59:40;1.30;99.90
5429;DHT22;2737;52.386;9.980;2024-01-15T08:02:07;1.30;99.90
5429;DHT22;2737;52.386;9.980;2024-01-15T08:04:36;1.30;99.90
5429;DHT22;2737;52.386;9.980;2024-01-15T08:07:04;1.40;99.90
5429;DHT22;2737;52.386;9.980;2024-01-15T08:09:32;1.40;99.90
5429;DHT22;2737;52.386;9.980;2024-01-15T08:11:59;1.40;99.90
5429;DHT22;2737;52.386;9.980;2024-01-15T08:14:26;1.30;99.90
5429;DHT22;2737;52.386;9.980;2024-01-15T08:16:53;1.30;99.90
5429;DHT22;2737;52.386;9.980;2024-01-15T08:19:20;1.30;99.90
5429;DHT22;2737;52.386;9.980;2024-01-15T08:21:48;1.30;99.90
5429;DHT22;2737;52.386;9.980;2024-01-15T08:24:15;1.30;99.90
5429;DHT22;2737;52.386;9.980;2024-01-15T08:26:43;1.30;99.90
5429;DHT22;2737;52.386;9.980;2024-01-15T08:29:11;1.20;99.90
5429;DHT22;2737;52.386;9.980;2024-01-15T08:31:38;1.20;99.90
5429;DHT22;2737;52.386;9.980;2024-01-15T08:34:05;1.10;99.90
5429;DHT22;2737;52.386;9.980;2024-01-15T08:36:32;1.10;99.90
5429;DHT22;2737;52.386;9.980;2024-01-15T08:39:01;1.00;99.90
5429;DHT22;2737;52.386;9.980;2024-01-15T08:41:30;1.00;99.90
5429;DHT22;2737;52.386;9.980;2024-01-15T08:43:59;1.00;99.90
5429;DHT22;2737;52.386;9.980;2024-01-15T08:46:26;1.00;99.90
5429;DHT22;2737;52.386;9.980;2024-01-15T08:48:53;1.00;99.90
5429;DHT22;2737;52.386;9.980;2024-01-15T08:51:20;1.00;99.90
5429;DHT22;2737;52.386;9.980;2024-01-15T08:53:47;1.00;99.90
5429;DHT22;2737;52.386;9.980;2024-01-15T08:56:14;1.10;99.90
5429;DHT22;2737;52.386;9.980;2024-01-15T08:58:41;1.10;99.90
5429;DHT22;2737;52.386;9.980;2024-01-15T09:01:09;1.10;99.90
5429;DHT22;2737;52.386;9.980;2024-01-15T09:03:36;1.10;99.90
5429;DHT22;2737;52.386;9.980;2024-01-15T09:06:03;1.10;99.90
5429;DHT22;2737;52.386;9.980;2024-01-15T09:08:31;1.20;99.90
5429;DHT22;2737;52.386;9.980;2024-01-15T09:10:58;1.20;99.90
5429;DHT22;2737;52.386;9.980;2024-01-15T09:13:28;1.30;99.90
5429;DHT22;2737;52.386;9.980;2024-01-15T09:15:55;1.40;99.90
5429;DHT22;2737;52.386;9.980;2024-01-15T09:18:23;1.40;99.90
5429;DHT22;2737;52.386;9.980;2024-01-15T09:20:50;1.40;99.90
5429;DHT22;2737;52.386;9.980;2024-01-15T09:23:17;1.40;99.90
5429;DHT22;2737;52.386;9.980;2024-01-15T09:25:44;1.40;99.90
5429;DHT22;2737;52.386;9.980;2024-01-15T09:28:11;1.50;99.90
5429;DHT22;2737;52.386;9.980;2024-01-15T09:30:38;1.50;99.90
5429;DHT22;2737;52.386;9.980;2024-01-15T09:33:05;1.50;99.90
5429;DHT22;2737;52.386;9.980;2024-01-15T09:35:33;1.60;99.90
5429;DHT22;2737;52.386;9.980;2024-01-15T09:38:00;1.60;99.90
5429;DHT22;2737;52.386;9.980;2024-01-15T09:40:31;1.60;99.90
5429;DHT22;2737;52.386;9.980;2024-01-15T09:42:58;1.60;99.90
5429;DHT22;2737;52.386;9.980;2024-01-15T09:45:26;1.70;99.90
5429;DHT22;2737;52.386;9.980;2024-01-15T09:47:53;1.70;99.90
5429;DHT22;2737;52.386;9.980;2024-01-15T09:50:20;1.80;99.90
5429;DHT22;2737;52.386;9.980;2024-01-15T09:52:49;1.80;99.90
5429;DHT22;2737;52.386;9.980;2024-01-15T09:55:17;1.80;99.90
5429;DHT22;2737;52.386;9.980;2024-01-15T09:57:45;1.90;99.90
5429;DHT22;2737;52.386;9.980;2024-01-15T10:00:13;1.90;99.90
5429;DHT22;2737;52.386;9.980;2024-01-15T10:02:41;2.00;99.90
5429;DHT22;2737;52.386;9.980;2024-01-15T10:05:08;2.10;99.90
5429;DHT22;2737;52.386;9.980;2024-01-15T10:07:36;2.10;99.90
5429;DHT22;2737;52.386;9.980;2024-01-15T10:10:06;2.00;99.90
5429;DHT22;2737;52.386;9.980;2024-01-15T10:12:34;2.00;99.90
5429;DHT22;2737;52.386;9.980;2024-01-15T10:15:02;2.00;99.90
5429;DHT22;2737;52.386;9.980;2024-01-15T10:17:30;2.00;99.90
5429;DHT22;2737;52.386;9.980;2024-01-15T10:19:57;2.00;99.90
5429;DHT22;2737;52.386;9.980;2024-01-15T10:22:25;2.00;99.90
5429;DHT22;2737;52.386;9.980;2024-01-15T10:24:52;1.90;99.90
5429;DHT22;2737;52.386;9.980;2024-01-15T10:27:21;1.90;99.90
5429;DHT22;2737;52.386;9.980;2024-01-15T10:29:48;1.90;99.90
5429;DHT22;2737;52.386;9.980;2024-01-15T10:32:15;1.90;99.90
5429;DHT22;2737;52.386;9.980;2024-01-15T10:34:42;1.90;99.90
5429;DHT22;2737;52.386;9.980;2024-01-15T10:37:09;1.90;99.90
5429;DHT22;2737;52.386;9.980;2024-01-15T10:39:37;1.80;99.90
5429;DHT22;2737;52.386;9.980;2024-01-15T10:42:05;1.70;99.90
5429;DHT22;2737;52.386;9.980;2024-01-15T10:44:34;1.60;99.90
5429;DHT22;2737;52.386;9.980;2024-01-15T10:47:02;1.60;99.90
5429;DHT22;2737;52.386;9.980;2024-01-15T10:49:29;1.60;99.90
5429;DHT22;2737;52.386;9.980;2024-01-15T10:51:56;1.50;99.90
5429;DHT22;2737;52.386;9.980;2024-01-15T10:54:24;1.50;99.90
5429;DHT22;2737;52.386;9.980;2024-01-15T10:56:51;1.50;99.90
5429;DHT22;2737;52.386;9.980;2024-01-15T10:59:20;1.50;99.90
5429;DHT22;2737;52.386;9.980;2024-01-15T11:01:49;1.60;99.90
5429;DHT22;2737;52.386;9.980;2024-01-15T11:04:19;1.70;99.90
5429;DHT22;2737;52.386;9.980;2024-01-15T11:06:51;1.80;99.90
5429;DHT22;2737;52.386;9.980;2024-01-15T11:09:19;1.80;99.90
5429;DHT22;2737;52.386;9.980;2024-01-15T11:11:47;1.90;99.90
5429;DHT22;2737;52.386;9.980;2024-01-15T11:14:38;1.90;99.90
5429;DHT22;2737;52.386;9.980;2024-01-15T11:17:07;1.90;99.90
5429;DHT22;2737;52.386;9.980;2024-01-15T11:19:38;2.00;99.90
5429;DHT22;2737;52.386;9.980;2024-01-15T11:22:09;2.00;99.90
5429;DHT22;2737;52.386;9.980;2024-01-15T11:24:38;1.90;99.90
5429;DHT22;2737;52.386;9.980;2024-01-15T11:27:05;1.80;99.90
5429;DHT22;2737;52.386;9.980;2024-01-15T11:29:33;1.80;99.90
5429;DHT22;2737;52.386;9.980;2024-01-15T11:32:02;1.80;99.90
5429;DHT22;2737;52.386;9.980;2024-01-15T11:34:55;1.80;99.90
5429;DHT22;2737;52.386;9.980;2024-01-15T11:37:24;1.90;99.90
5429;DHT22;2737;52.386;9.980;2024-01-15T11:39:55;2.00;99.90
5429;DHT22;2737;52.386;9.980;2024-01-15T11:42:23;2.00;99.90
5429;DHT22;2737;52.386;9.980;2024-01-15T11:44:50;2.10;99.90
5429;DHT22;2737;52.386;9.980;2024-01-15T11:47:39;2.10;99.90
5429;DHT22;2737;52.386;9.980;2024-01-15T11:50:13;2.20;99.90
5429;DHT22;2737;52.386;9.980;2024-01-15T11:52:45;2.20;99.90
5429;DHT22;2737;52.386;9.980;2024-01-15T11:55:27;2.20;99.90
5429;DHT22;2737;52.386;9.980;2024-01-15T11:57:55;2.20;99.90
5429;DHT22;2737;52.386;9.980;2024-01-15T12:00:24;2.20;99.90
5429;DHT22;2737;52.386;9.980;2024-01-15T12:02:51;2.20;99.90
5429;DHT22;2737;52.386;9.980;2024-01-15T12:05:20;2.20;99.90
5429;DHT22;2737;52.386;9.980;2024-01-15T12:07:49;2.20;99.90
5429;DHT22;2737;52.386;9.980;2024-01-15T12:10:18;2.20;99.90
5429;DHT22;2737;52.386;9.980;2024-01-15T12:13:04;2.20;99.90
5429;DHT22;2737;52.386;9.980;2024-01-15T12:15:32;2.10;99.90
5429;DHT22;2737;52.386;9.980;2024-01-15T12:18:00;2.10;99.90
5429;DHT22;2737;52.386;9.980;2024-01-15T12:20:30;2.10;99.90
5429;DHT22;2737;52.386;9.980;2024-01-15T12:22:57;2.10;99.90
5429;DHT22;2737;52.386;9.980;2024-01-15T12:25:25;2.10;99.90
5429;DHT22;2737;52.386;9.980;2024-01-15T12:27:53;2.00;99.90
5429;DHT22;2737;52.386;9.980;2024-01-15T12:30:20;2.00;99.90
5429;DHT22;2737;52.386;9.980;2024-01-15T12:32:48;2.00;99.90
5429;DHT22;2737;52.386;9.980;2024-01-15T12:35:15;2.10;99.90
5429;DHT22;2737;52.386;9.980;2024-01-15T12:37:44;2.10;99.90
5429;DHT22;2737;52.386;9.980;2024-01-15T12:40:12;2.10;99.90
5429;DHT22;2737;52.386;9.980;2024-01-15T12:42:40;2.10;99.90
5429;DHT22;2737;52.386;9.980;2024-01-15T12:45:09;2.10;99.90
5429;DHT22;2737;52.386;9.980;2024-01-15T12:47:36;2.10;99.90
5429;DHT22;2737;52.386;9.980;2024-01-15T12:50:06;2.10;99.90
5429;DHT22;2737;52.386;9.980;2024-01-15T12:52:33;2.10;99.90
5429;DHT22;2737;52.386;9.980;2024-01-15T12:55:02;2.10;99.90
5429;DHT22;2737;52.386;9.980;2024-01-15T12:57:29;2.10;99.90
5429;DHT22;2737;52.386;9.980;2024-01-15T12:59:56;2.20;99.90
5429;DHT22;2737;52.386;9.980;2024-01-15T13:02:23;2.20;99.90
5429;DHT22;2737;52.386;9.980;2024-01-15T13:04:50;2.30;99.90
5429;DHT22;2737;52.386;9.980;2024-01-15T13:07:19;2.30;99.90
5429;DHT22;2737;52.386;9.980;2024-01-15T13:09:46;2.30;99.90
5429;DHT22;2737;52.386;9.980;2024-01-15T13:12:19;2.30;99.90
5429;DHT22;2737;52.386;9.980;2024-01-15T13:14:46;2.30;99.90
5429;DHT22;2737;52.386;9.980;2024-01-15T13:17:13;2.30;99.90
5429;DHT22;2737;52.386;9.980;2024-01-15T13:19:41;2.30;99.90
5429;DHT22;2737;52.386;9.980;2024-01-15T13:22:08;2.20;99.90
5429;DHT22;2737;52.386;9.980;2024-01-15T13:24:35;2.00;99.90
5429;DHT22;2737;52.386;9.980;2024-01-15T13:27:02;2.00;99.90
5429;DHT22;2737;52.386;9.980;2024-01-15T13:29:31;2.00;99.90
5429;DHT22;2737;52.386;9.980;2024-01-15T13:32:01;1.80;99.90
5429;DHT22;2737;52.386;9.980;2024-01-15T13:34:28;1.70;99.90
5429;DHT22;2737;52.386;9.980;2024-01-15T13:36:55;1.70;99.90
5429;DHT22;2737;52.386;9.980;2024-01-15T13:39:22;1.70;99.90
5429;DHT22;2737;52.386;9.980;2024-01-15T13:41:49;1.80;99.90
5429;DHT22;2737;52.386;9.980;2024-01-15T13:44:17;1.90;99.90
5429;DHT22;2737;52.386;9.980;2024-01-15T13:46:46;1.90;99.90
5429;DHT22;2737;52.386;9.980;2024-01-15T13:49:13;1.90;99.90
5429;DHT22;2737;52.386;9.980;2024-01-15T13:51:40;2.00;99.90
5429;DHT22;2737;52.386;9.980;2024-01-15T13:54:07;2.00;99.90
5429;DHT22;2737;52.386;9.980;2024-01-15T13:56:34;2.00;99.90
5429;DHT22;2737;52.386;9.980;2024-01-15T13:59:01;2.00;99.90
5429;DHT22;2737;52.386;9.980;2024-01-15T14:01:29;2.00;99.90
5429;DHT22;2737;52.386;9.980;2024-01-15T14:03:58;2.00;99.90
5429;DHT22;2737;52.386;9.980;2024-01-15T14:06:25;2.00;99.90
5429;DHT22;2737;52.386;9.980;2024-01-15T14:08:52;2.00;99.90
5429;DHT22;2737;52.386;9.980;2024-01-15T14:11:19;2.00;99.90
5429;DHT22;2737;52.386;9.980;2024-01-15T14:13:46;2.40;99.90
5429;DHT22;2737;52.386;9.980;2024-01-15T14:16:14;1.90;99.90
5429;DHT22;2737;52.386;9.980;2024-01-15T14:18:41;1.80;99.90
5429;DHT22;2737;52.386;9.980;2024-01-15T14:21:09;1.70;99.90
5429;DHT22;2737;52.386;9.980;2024-01-15T14:23:36;1.60;99.90
5429;DHT22;2737;52.386;9.980;2024-01-15T14:26:03;1.20;99.90
5429;DHT22;2737;52.386;9.980;2024-01-15T14:28:30;1.20;99.90
5429;DHT22;2737;52.386;9.980;2024-01-15T14:30:57;1.10;99.90
5429;DHT22;2737;52.386;9.980;2024-01-15T14:33:26;1.20;99.90
5429;DHT22;2737;52.386;9.980;2024-01-15T14:35:53;1.20;99.90
5429;DHT22;2737;52.386;9.980;2024-01-15T14:38:21;1.20;99.90
5429;DHT22;2737;52.386;9.980;2024-01-15T14:40:48;1.20;99.90
5429;DHT22;2737;52.386;9.980;2024-01-15T14:43:16;1.20;99.90
5429;DHT22;2737;52.386;9.980;2024-01-15T14:45:43;1.20;99.90
5429;DHT22;2737;52.386;9.980;2024-01-15T14:48:10;1.20;99.90
5429;DHT22;2737;52.386;9.980;2024-01-15T14:50:39;1.20;99.90
5429;DHT22;2737;52.386;9.980;2024-01-15T14:53:06;1.20;99.90
5429;DHT22;2737;52.386;9.980;2024-01-15T14:55:34;1.10;99.90
5429;DHT22;2737;52.386;9.980;2024-01-15T14:58:01;1.20;99.90
5429;DHT22;2737;52.386;9.980;2024-01-15T15:00:28;1.20;99.90
5429;DHT22;2737;52.386;9.980;2024-01-15T15:02:55;1.20;99.90
5429;DHT22;2737;52.386;9.980;2024-01-15T15:05:22;1.20;99.90
5429;DHT22;2737;52.386;9.980;2024-01-15T15:07:49;1.20;99.90
5429;DHT22;2737;52.386;9.980;2024-01-15T15:10:17;1.10;99.90
5429;DHT22;2737;52.386;9.980;2024-01-15T15:12:45;1.10;99.90
5429;DHT22;2737;52.386;9.980;2024-01-15T15:15:12;1.10;99.90
5429;DHT22;2737;52.386;9.980;2024-01-15T15:17:40;1.10;99.90
5429;DHT22;2737;52.386;9.980;2024-01-15T15:20:07;1.10;99.90
5429;DHT22;2737;52.386;9.980;2024-01-15T15:22:35;1.10;99.90
5429;DHT22;2737;52.386;9.980;2024-01-15T15:25:02;1.10;99.90
5429;DHT22;2737;52.386;9.980;2024-01-15T15:27:29;1.10;99.90
5429;DHT22;2737;52.386;9.980;2024-01-15T15:29:57;1.10;99.90
5429;DHT22;2737;52.386;9.980;2024-01-15T15:32:24;1.10;99.90
5429;DHT22;2737;52.386;9.980;2024-01-15T15:34:51;1.10;99.90
5429;DHT22;2737;52.386;9.980;2024-01-15T15:37:18;1.10;99.90
5429;DHT22;2737;52.386;9.980;2024-01-15T15:39:45;1.10;99.90
5429;DHT22;2737;52.386;9.980;2024-01-15T15:42:12;1.10;99.90
5429;DHT22;2737;52.386;9.980;2024-01-15T15:44:40;1.10;99.90
5429;DHT22;2737;52.386;9.980;2024-01-15T15:47:13;1.10;99.90
5429;DHT22;2737;52.386;9.980;2024-01-15T15:49:40;1.10;99.90
5429;DHT22;2737;52.386;9.980;2024-01-15T15:52:08;1.10;99.90
5429;DHT22;2737;52.386;9.980;2024-01-15T15:54:35;1.10;99.90
5429;DHT22;2737;52.386;9.980;2024-01-15T15:57:03;1.10;99.90
5429;DHT22;2737;52.386;9.980;2024-01-15T15:59:30;1.00;99.90
5429;DHT22;2737;52.386;9.980;2024-01-15T16:01:57;1.00;99.90
5429;DHT22;2737;52.386;9.980;2024-01-15T16:04:25;1.00;99.90
5429;DHT22;2737;52.386;9.980;2024-01-15T16:06:52;1.00;99.90
5429;DHT22;2737;52.386;9.980;2024-01-15T16:09:20;0.90;99.90
5429;DHT22;2737;52.386;9.980;2024-01-15T16:11:48;0.90;99.90
5429;DHT22;2737;52.386;9.980;2024-01-15T16:14:15;0.90;99.90
5429;DHT22;2737;52.386;9.980;2024-01-15T16:16:43;0.90;99.90
5429;DHT22;2737;52.386;9.980;2024-01-15T16:19:10;0.90;99.90